sensor_id;sensor_type;location;lat;lon;timestamp;P1;durP1;ratioP1;P2;durP2;ratioP2
39502;SDS011;26970;49.900;10.774;2022-12-08T00:01:18;23.52;;;13.45;;
39502;SDS011;26970;49.900;10.774;2022-12-08T00:03:46;24.65;;;13.98;;
39502;SDS011;26970;49.900;10.774;2022-12-08T00:06:15;25.73;;;13.95;;
39502;SDS011;26970;49.900;10.774;2022-12-08T00:09:07;24.48;;;14.07;;
39502;SDS011;26970;49.900;10.774;2022-12-08T00:11:47;24.67;;;14.75;;
39502;SDS011;26970;49.900;10.774;2022-12-08T00:14:24;24.85;;;14.57;;
39502;SDS011;26970;49.900;10.774;2022-12-08T00:16:51;25.37;;;14.63;;
39502;SDS011;26970;49.900;10.774;2022-12-08T00:19:17;26.75;;;14.80;;
39502;SDS011;26970;49.900;10.774;2022-12-08T00:21:43;27.75;;;15.07;;
39502;SDS011;26970;49.900;10.774;2022-12-08T00:24:09;26.45;;;14.77;;
39502;SDS011;26970;49.900;10.774;2022-12-08T00:26:35;27.55;;;15.02;;
39502;SDS011;26970;49.900;10.774;2022-12-08T00:29:01;29.83;;;14.02;;
39502;SDS011;26970;49.900;10.774;2022-12-08T00:31:26;27.30;;;13.45;;
39502;SDS011;26970;49.900;10.774;2022-12-08T00:33:52;24.98;;;13.30;;
39502;SDS011;26970;49.900;10.774;2022-12-08T00:36:17;27.33;;;13.98;;
39502;SDS011;26970;49.900;10.774;2022-12-08T00:38:43;27.85;;;14.70;;
39502;SDS011;26970;49.900;10.774;2022-12-08T00:41:12;28.42;;;15.00;;
39502;SDS011;26970;49.900;10.774;2022-12-08T00:43:42;29.98;;;14.85;;
39502;SDS011;26970;49.900;10.774;2022-12-08T00:46:08;24.17;;;14.23;;
39502;SDS011;26970;49.900;10.774;2022-12-08T00:48:34;24.17;;;15.20;;
39502;SDS011;26970;49.900;10.774;2022-12-08T00:51:00;26.77;;;14.27;;
39502;SDS011;26970;49.900;10.774;2022-12-08T00:53:25;27.73;;;14.80;;
39502;SDS011;26970;49.900;10.774;2022-12-08T00:55:51;25.90;;;13.77;;
39502;SDS011;26970;49.900;10.774;2022-12-08T00:58:16;24.60;;;14.05;;
39502;SDS011;26970;49.900;10.774;2022-12-08T01:00:42;24.25;;;13.95;;
39502;SDS011;26970;49.900;10.774;2022-12-08T01:03:09;26.42;;;14.73;;
39502;SDS011;26970;49.900;10.774;2022-12-08T01:05:35;25.05;;;14.15;;
39502;SDS011;26970;49.900;10.774;2022-12-08T01:08:00;26.65;;;14.82;;
39502;SDS011;26970;49.900;10.774;2022-12-08T01:10:29;26.92;;;15.55;;
39502;SDS011;26970;49.900;10.774;2022-12-08T01:12:57;26.67;;;15.40;;
39502;SDS011;26970;49.900;10.774;2022-12-08T01:15:23;27.10;;;14.82;;
39502;SDS011;26970;49.900;10.774;2022-12-08T01:17:51;26.00;;;15.32;;
39502;SDS011;26970;49.900;10.774;2022-12-08T01:20:19;28.27;;;15.25;;
39502;SDS011;26970;49.900;10.774;2022-12-08T01:22:45;32.25;;;15.52;;
39502;SDS011;26970;49.900;10.774;2022-12-08T01:25:10;26.45;;;14.52;;
39502;SDS011;26970;49.900;10.774;2022-12-08T01:27:39;28.98;;;15.90;;
39502;SDS011;26970;49.900;10.774;2022-12-08T01:30:05;30.40;;;15.50;;
39502;SDS011;26970;49.900;10.774;2022-12-08T01:32:31;33.50;;;17.90;;
39502;SDS011;26970;49.900;10.774;2022-12-08T01:34:56;27.77;;;16.08;;
39502;SDS011;26970;49.900;10.774;2022-12-08T01:37:22;30.05;;;15.75;;
39502;SDS011;26970;49.900;10.774;2022-12-08T01:39:48;29.65;;;14.82;;
39502;SDS011;26970;49.900;10.774;2022-12-08T01:42:20;25.95;;;15.07;;
39502;SDS011;26970;49.900;10.774;2022-12-08T01:47:21;31.42;;;16.63;;
39502;SDS011;26970;49.900;10.774;2022-12-08T01:49:51;25.92;;;15.27;;
39502;SDS011;26970;49.900;10.774;2022-12-08T01:52:28;27.70;;;15.18;;
39502;SDS011;26970;49.900;10.774;2022-12-08T01:55:16;26.30;;;15.25;;
39502;SDS011;26970;49.900;10.774;2022-12-08T01:57:48;31.55;;;15.73;;
39502;SDS011;26970;49.900;10.774;2022-12-08T02:00:20;31.08;;;16.42;;
39502;SDS011;26970;49.900;10.774;2022-12-08T02:03:03;24.80;;;14.18;;
39502;SDS011;26970;49.900;10.774;2022-12-08T02:05:32;29.67;;;15.77;;
39502;SDS011;26970;49.900;10.774;2022-12-08T02:08:04;32.58;;;16.95;;
39502;SDS011;26970;49.900;10.774;2022-12-08T02:10:32;28.30;;;15.10;;
39502;SDS011;26970;49.900;10.774;2022-12-08T02:13:00;31.98;;;16.25;;
39502;SDS011;26970;49.900;10.774;2022-12-08T02:20:52;27.73;;;15.32;;
39502;SDS011;26970;49.900;10.774;2022-12-08T02:35:02;26.13;;;14.68;;
39502;SDS011;26970;49.900;10.774;2022-12-08T02:37:46;33.40;;;14.88;;
39502;SDS011;26970;49.900;10.774;2022-12-08T02:40:34;21.85;;;13.98;;
39502;SDS011;26970;49.900;10.774;2022-12-08T02:43:07;26.88;;;15.77;;
39502;SDS011;26970;49.900;10.774;2022-12-08T02:45:40;28.60;;;16.05;;
39502;SDS011;26970;49.900;10.774;2022-12-08T02:48:29;27.85;;;15.15;;
39502;SDS011;26970;49.900;10.774;2022-12-08T02:50:56;28.92;;;15.35;;
39502;SDS011;26970;49.900;10.774;2022-12-08T02:53:22;24.63;;;13.38;;
39502;SDS011;26970;49.900;10.774;2022-12-08T03:01:17;28.90;;;15.55;;
39502;SDS011;26970;49.900;10.774;2022-12-08T03:07:30;26.92;;;15.75;;
39502;SDS011;26970;49.900;10.774;2022-12-08T03:10:08;30.58;;;15.73;;
39502;SDS011;26970;49.900;10.774;2022-12-08T03:13:17;30.73;;;16.40;;
39502;SDS011;26970;49.900;10.774;2022-12-08T03:15:47;28.85;;;15.10;;
39502;SDS011;26970;49.900;10.774;2022-12-08T03:18:15;31.75;;;16.38;;
39502;SDS011;26970;49.900;10.774;2022-12-08T03:20:43;30.00;;;15.20;;
39502;SDS011;26970;49.900;10.774;2022-12-08T03:23:11;30.85;;;15.73;;
39502;SDS011;26970;49.900;10.774;2022-12-08T03:25:42;28.90;;;15.68;;
39502;SDS011;26970;49.900;10.774;2022-12-08T03:28:35;29.80;;;14.98;;
39502;SDS011;26970;49.900;10.774;2022-12-08T03:31:02;29.45;;;15.98;;
39502;SDS011;26970;49.900;10.774;2022-12-08T03:33:32;31.02;;;16.25;;
39502;SDS011;26970;49.900;10.774;2022-12-08T03:36:03;33.25;;;16.63;;
39502;SDS011;26970;49.900;10.774;2022-12-08T03:38:37;34.60;;;16.58;;
39502;SDS011;26970;49.900;10.774;2022-12-08T03:41:04;30.73;;;15.98;;
39502;SDS011;26970;49.900;10.774;2022-12-08T03:43:43;31.35;;;15.70;;
39502;SDS011;26970;49.900;10.774;2022-12-08T03:46:20;28.90;;;16.02;;
39502;SDS011;26970;49.900;10.774;2022-12-08T03:48:47;37.05;;;17.52;;
39502;SDS011;26970;49.900;10.774;2022-12-08T03:51:12;26.90;;;15.10;;
39502;SDS011;26970;49.900;10.774;2022-12-08T03:53:38;32.03;;;16.08;;
39502;SDS011;26970;49.900;10.774;2022-12-08T03:56:05;39.47;;;17.08;;
39502;SDS011;26970;49.900;10.774;2022-12-08T03:58:52;32.25;;;16.52;;
39502;SDS011;26970;49.900;10.774;2022-12-08T04:01:18;35.72;;;19.08;;
39502;SDS011;26970;49.900;10.774;2022-12-08T04:03:44;32.58;;;17.05;;
39502;SDS011;26970;49.900;10.774;2022-12-08T04:06:10;34.72;;;17.52;;
39502;SDS011;26970;49.900;10.774;2022-12-08T04:08:36;33.08;;;17.38;;
39502;SDS011;26970;49.900;10.774;2022-12-08T04:11:02;35.65;;;17.65;;
39502;SDS011;26970;49.900;10.774;2022-12-08T04:13:27;35.83;;;18.88;;
39502;SDS011;26970;49.900;10.774;2022-12-08T04:15:53;31.52;;;16.90;;
39502;SDS011;26970;49.900;10.774;2022-12-08T04:18:19;35.55;;;18.23;;
39502;SDS011;26970;49.900;10.774;2022-12-08T04:20:45;34.88;;;16.95;;
39502;SDS011;26970;49.900;10.774;2022-12-08T04:23:11;33.50;;;17.63;;
39502;SDS011;26970;49.900;10.774;2022-12-08T04:25:37;36.92;;;17.25;;
39502;SDS011;26970;49.900;10.774;2022-12-08T04:28:03;37.67;;;17.50;;
39502;SDS011;26970;49.900;10.774;2022-12-08T04:30:29;35.30;;;17.30;;
39502;SDS011;26970;49.900;10.774;2022-12-08T04:32:55;31.08;;;16.67;;
39502;SDS011;26970;49.900;10.774;2022-12-08T04:35:20;30.48;;;17.10;;
39502;SDS011;26970;49.900;10.774;2022-12-08T04:37:46;30.05;;;15.70;;
39502;SDS011;26970;49.900;10.774;2022-12-08T04:40:12;30.20;;;16.48;;
39502;SDS011;26970;49.900;10.774;2022-12-08T04:42:38;37.25;;;17.20;;
39502;SDS011;26970;49.900;10.774;2022-12-08T04:45:04;31.08;;;16.23;;
39502;SDS011;26970;49.900;10.774;2022-12-08T04:47:30;30.42;;;15.55;;
39502;SDS011;26970;49.900;10.774;2022-12-08T04:49:56;33.83;;;16.95;;
39502;SDS011;26970;49.900;10.774;2022-12-08T04:52:21;29.40;;;16.45;;
39502;SDS011;26970;49.900;10.774;2022-12-08T04:54:47;33.90;;;17.38;;
39502;SDS011;26970;49.900;10.774;2022-12-08T04:57:12;31.20;;;16.90;;
39502;SDS011;26970;49.900;10.774;2022-12-08T04:59:38;33.90;;;16.33;;
39502;SDS011;26970;49.900;10.774;2022-12-08T05:02:04;36.88;;;17.08;;
39502;SDS011;26970;49.900;10.774;2022-12-08T05:04:29;31.08;;;15.02;;
39502;SDS011;26970;49.900;10.774;2022-12-08T05:06:55;33.80;;;16.55;;
39502;SDS011;26970;49.900;10.774;2022-12-08T05:09:20;34.15;;;17.08;;
39502;SDS011;26970;49.900;10.774;2022-12-08T05:11:46;36.95;;;17.65;;
39502;SDS011;26970;49.900;10.774;2022-12-08T05:14:12;32.13;;;16.30;;
39502;SDS011;26970;49.900;10.774;2022-12-08T05:16:39;32.00;;;15.88;;
39502;SDS011;26970;49.900;10.774;2022-12-08T05:19:06;32.72;;;16.33;;
39502;SDS011;26970;49.900;10.774;2022-12-08T05:21:31;31.48;;;16.27;;
39502;SDS011;26970;49.900;10.774;2022-12-08T05:23:57;30.42;;;15.18;;
39502;SDS011;26970;49.900;10.774;2022-12-08T05:26:23;29.45;;;16.45;;
39502;SDS011;26970;49.900;10.774;2022-12-08T05:28:49;32.90;;;15.80;;
39502;SDS011;26970;49.900;10.774;2022-12-08T05:31:15;35.83;;;17.35;;
39502;SDS011;26970;49.900;10.774;2022-12-08T05:33:41;33.67;;;18.17;;
39502;SDS011;26970;49.900;10.774;2022-12-08T05:36:08;39.83;;;19.98;;
39502;SDS011;26970;49.900;10.774;2022-12-08T05:38:35;53.50;;;25.73;;
39502;SDS011;26970;49.900;10.774;2022-12-08T05:41:01;63.70;;;28.77;;
39502;SDS011;26970;49.900;10.774;2022-12-08T05:43:27;71.38;;;29.92;;
39502;SDS011;26970;49.900;10.774;2022-12-08T05:45:53;72.00;;;30.70;;
39502;SDS011;26970;49.900;10.774;2022-12-08T05:48:18;69.80;;;27.75;;
39502;SDS011;26970;49.900;10.774;2022-12-08T05:50:47;45.20;;;22.15;;
39502;SDS011;26970;49.900;10.774;2022-12-08T05:53:18;35.30;;;17.92;;
39502;SDS011;26970;49.900;10.774;2022-12-08T05:55:44;33.08;;;16.15;;
39502;SDS011;26970;49.900;10.774;2022-12-08T05:58:11;32.30;;;18.33;;
39502;SDS011;26970;49.900;10.774;2022-12-08T06:00:39;31.10;;;15.80;;
39502;SDS011;26970;49.900;10.774;2022-12-08T06:03:05;36.08;;;16.58;;
39502;SDS011;26970;49.900;10.774;2022-12-08T06:05:31;29.10;;;15.82;;
39502;SDS011;26970;49.900;10.774;2022-12-08T06:07:58;28.00;;;14.63;;
39502;SDS011;26970;49.900;10.774;2022-12-08T06:10:23;26.60;;;15.73;;
39502;SDS011;26970;49.900;10.774;2022-12-08T06:12:49;33.80;;;19.75;;
39502;SDS011;26970;49.900;10.774;2022-12-08T06:15:14;28.23;;;15.73;;
39502;SDS011;26970;49.900;10.774;2022-12-08T06:17:40;33.78;;;15.73;;
39502;SDS011;26970;49.900;10.774;2022-12-08T06:20:07;31.33;;;16.33;;
39502;SDS011;26970;49.900;10.774;2022-12-08T06:22:33;28.60;;;15.18;;
39502;SDS011;26970;49.900;10.774;2022-12-08T06:24:59;28.38;;;15.95;;
39502;SDS011;26970;49.900;10.774;2022-12-08T06:27:24;30.42;;;15.50;;
39502;SDS011;26970;49.900;10.774;2022-12-08T06:29:50;30.17;;;15.43;;
39502;SDS011;26970;49.900;10.774;2022-12-08T06:32:16;26.25;;;14.88;;
39502;SDS011;26970;49.900;10.774;2022-12-08T06:34:42;29.17;;;16.25;;
39502;SDS011;26970;49.900;10.774;2022-12-08T06:37:07;30.70;;;16.45;;
39502;SDS011;26970;49.900;10.774;2022-12-08T06:39:33;29.73;;;15.20;;
39502;SDS011;26970;49.900;10.774;2022-12-08T06:41:59;32.72;;;16.60;;
39502;SDS011;26970;49.900;10.774;2022-12-08T06:44:43;31.83;;;16.38;;
39502;SDS011;26970;49.900;10.774;2022-12-08T06:47:09;30.20;;;16.15;;
39502;SDS011;26970;49.900;10.774;2022-12-08T06:49:37;32.20;;;16.38;;
39502;SDS011;26970;49.900;10.774;2022-12-08T06:52:04;28.35;;;15.43;;
39502;SDS011;26970;49.900;10.774;2022-12-08T06:54:30;28.88;;;14.98;;
39502;SDS011;26970;49.900;10.774;2022-12-08T06:56:58;31.33;;;15.18;;
39502;SDS011;26970;49.900;10.774;2022-12-08T06:59:24;27.75;;;16.10;;
39502;SDS011;26970;49.900;10.774;2022-12-08T07:02:05;30.15;;;14.82;;
39502;SDS011;26970;49.900;10.774;2022-12-08T07:04:36;26.67;;;14.75;;
39502;SDS011;26970;49.900;10.774;2022-12-08T07:07:02;29.98;;;14.23;;
39502;SDS011;26970;49.900;10.774;2022-12-08T07:09:27;25.38;;;14.30;;
39502;SDS011;26970;49.900;10.774;2022-12-08T07:11:53;29.25;;;15.00;;
39502;SDS011;26970;49.900;10.774;2022-12-08T07:14:24;30.00;;;15.30;;
39502;SDS011;26970;49.900;10.774;2022-12-08T07:16:53;25.52;;;13.85;;
39502;SDS011;26970;49.900;10.774;2022-12-08T07:19:35;28.42;;;14.45;;
39502;SDS011;26970;49.900;10.774;2022-12-08T07:22:07;26.77;;;14.65;;
39502;SDS011;26970;49.900;10.774;2022-12-08T07:24:39;24.20;;;13.60;;
39502;SDS011;26970;49.900;10.774;2022-12-08T07:27:07;20.55;;;12.20;;
39502;SDS011;26970;49.900;10.774;2022-12-08T07:29:50;22.60;;;12.65;;
39502;SDS011;26970;49.900;10.774;2022-12-08T07:32:20;23.98;;;12.73;;
39502;SDS011;26970;49.900;10.774;2022-12-08T07:34:55;20.52;;;11.45;;
39502;SDS011;26970;49.900;10.774;2022-12-08T07:37:24;21.50;;;13.15;;
39502;SDS011;26970;49.900;10.774;2022-12-08T07:39:59;23.67;;;12.45;;
39502;SDS011;26970;49.900;10.774;2022-12-08T07:42:50;20.48;;;11.18;;
39502;SDS011;26970;49.900;10.774;2022-12-08T07:45:15;22.77;;;12.35;;
39502;SDS011;26970;49.900;10.774;2022-12-08T07:47:46;20.42;;;11.85;;
39502;SDS011;26970;49.900;10.774;2022-12-08T07:50:21;22.92;;;12.52;;
39502;SDS011;26970;49.900;10.774;2022-12-08T07:52:49;20.90;;;12.13;;
39502;SDS011;26970;49.900;10.774;2022-12-08T07:55:17;20.90;;;12.23;;
39502;SDS011;26970;49.900;10.774;2022-12-08T07:57:55;23.10;;;12.90;;
39502;SDS011;26970;49.900;10.774;2022-12-08T08:00:21;24.55;;;12.20;;
39502;SDS011;26970;49.900;10.774;2022-12-08T08:02:46;20.63;;;12.25;;
39502;SDS011;26970;49.900;10.774;2022-12-08T08:05:21;20.08;;;12.20;;
39502;SDS011;26970;49.900;10.774;2022-12-08T08:07:52;21.98;;;12.40;;
39502;SDS011;26970;49.900;10.774;2022-12-08T08:10:36;21.73;;;11.52;;
39502;SDS011;26970;49.900;10.774;2022-12-08T08:13:07;22.80;;;12.82;;
39502;SDS011;26970;49.900;10.774;2022-12-08T08:15:42;21.08;;;11.50;;
39502;SDS011;26970;49.900;10.774;2022-12-08T08:18:07;23.98;;;13.43;;
39502;SDS011;26970;49.900;10.774;2022-12-08T08:20:33;22.83;;;12.30;;
39502;SDS011;26970;49.900;10.774;2022-12-08T08:22:58;24.20;;;12.73;;
39502;SDS011;26970;49.900;10.774;2022-12-08T08:25:24;20.75;;;12.25;;
39502;SDS011;26970;49.900;10.774;2022-12-08T08:27:57;23.50;;;13.32;;
39502;SDS011;26970;49.900;10.774;2022-12-08T08:30:29;23.10;;;11.95;;
39502;SDS011;26970;49.900;10.774;2022-12-08T08:32:59;25.17;;;14.02;;
39502;SDS011;26970;49.900;10.774;2022-12-08T08:35:38;25.10;;;12.63;;
39502;SDS011;26970;49.900;10.774;2022-12-08T08:38:07;24.45;;;13.55;;
39502;SDS011;26970;49.900;10.774;2022-12-08T08:40:32;24.42;;;14.05;;
39502;SDS011;26970;49.900;10.774;2022-12-08T08:43:04;27.33;;;14.60;;
39502;SDS011;26970;49.900;10.774;2022-12-08T08:45:33;26.67;;;13.82;;
39502;SDS011;26970;49.900;10.774;2022-12-08T08:47:59;25.83;;;14.43;;
39502;SDS011;26970;49.900;10.774;2022-12-08T08:50:28;25.45;;;14.25;;
39502;SDS011;26970;49.900;10.774;2022-12-08T08:52:53;29.20;;;14.85;;
39502;SDS011;26970;49.900;10.774;2022-12-08T08:55:19;24.50;;;13.60;;
39502;SDS011;26970;49.900;10.774;2022-12-08T08:57:55;26.27;;;12.77;;
39502;SDS011;26970;49.900;10.774;2022-12-08T09:00:29;19.88;;;12.60;;
39502;SDS011;26970;49.900;10.774;2022-12-08T09:02:55;22.60;;;12.93;;
39502;SDS011;26970;49.900;10.774;2022-12-08T09:05:21;19.85;;;11.60;;
39502;SDS011;26970;49.900;10.774;2022-12-08T09:07:46;21.45;;;12.15;;
39502;SDS011;26970;49.900;10.774;2022-12-08T09:10:14;23.73;;;12.85;;
39502;SDS011;26970;49.900;10.774;2022-12-08T09:12:42;19.75;;;11.52;;
39502;SDS011;26970;49.900;10.774;2022-12-08T09:15:26;20.58;;;11.85;;
39502;SDS011;26970;49.900;10.774;2022-12-08T09:17:55;23.48;;;12.27;;
39502;SDS011;26970;49.900;10.774;2022-12-08T09:20:25;21.13;;;11.50;;
39502;SDS011;26970;49.900;10.774;2022-12-08T09:29:06;19.17;;;11.07;;
39502;SDS011;26970;49.900;10.774;2022-12-08T09:31:42;20.20;;;12.25;;
39502;SDS011;26970;49.900;10.774;2022-12-08T09:34:18;18.55;;;10.75;;
39502;SDS011;26970;49.900;10.774;2022-12-08T09:36:51;23.00;;;12.57;;
39502;SDS011;26970;49.900;10.774;2022-12-08T09:39:17;23.98;;;14.10;;
39502;SDS011;26970;49.900;10.774;2022-12-08T09:41:47;33.65;;;17.98;;
39502;SDS011;26970;49.900;10.774;2022-12-08T09:50:30;21.63;;;13.25;;
39502;SDS011;26970;49.900;10.774;2022-12-08T09:56:18;15.93;;;9.95;;
39502;SDS011;26970;49.900;10.774;2022-12-08T09:58:57;19.55;;;10.45;;
39502;SDS011;26970;49.900;10.774;2022-12-08T10:01:27;20.00;;;11.18;;
39502;SDS011;26970;49.900;10.774;2022-12-08T10:04:02;18.55;;;10.27;;
39502;SDS011;26970;49.900;10.774;2022-12-08T10:06:45;18.23;;;10.93;;
39502;SDS011;26970;49.900;10.774;2022-12-08T10:09:29;16.27;;;10.07;;
39502;SDS011;26970;49.900;10.774;2022-12-08T10:12:33;15.95;;;9.68;;
39502;SDS011;26970;49.900;10.774;2022-12-08T10:15:21;17.60;;;10.20;;
39502;SDS011;26970;49.900;10.774;2022-12-08T10:17:53;16.67;;;9.20;;
39502;SDS011;26970;49.900;10.774;2022-12-08T10:20:20;17.20;;;9.75;;
39502;SDS011;26970;49.900;10.774;2022-12-08T10:23:20;21.95;;;12.20;;
39502;SDS011;26970;49.900;10.774;2022-12-08T10:25:55;14.82;;;9.73;;
39502;SDS011;26970;49.900;10.774;2022-12-08T10:28:28;16.33;;;9.63;;
39502;SDS011;26970;49.900;10.774;2022-12-08T10:30:59;15.07;;;9.43;;
39502;SDS011;26970;49.900;10.774;2022-12-08T10:33:55;15.52;;;9.15;;
39502;SDS011;26970;49.900;10.774;2022-12-08T10:37:07;14.35;;;9.00;;
39502;SDS011;26970;49.900;10.774;2022-12-08T10:39:46;16.13;;;9.25;;
39502;SDS011;26970;49.900;10.774;2022-12-08T10:42:15;17.27;;;8.63;;
39502;SDS011;26970;49.900;10.774;2022-12-08T10:50:58;16.27;;;9.10;;
39502;SDS011;26970;49.900;10.774;2022-12-08T10:53:40;15.25;;;8.98;;
39502;SDS011;26970;49.900;10.774;2022-12-08T10:56:31;14.48;;;9.13;;
39502;SDS011;26970;49.900;10.774;2022-12-08T10:59:14;16.48;;;9.32;;
39502;SDS011;26970;49.900;10.774;2022-12-08T11:01:53;17.55;;;9.63;;
39502;SDS011;26970;49.900;10.774;2022-12-08T11:04:35;15.10;;;9.07;;
39502;SDS011;26970;49.900;10.774;2022-12-08T11:07:18;14.85;;;8.93;;
39502;SDS011;26970;49.900;10.774;2022-12-08T11:09:52;16.77;;;9.27;;
39502;SDS011;26970;49.900;10.774;2022-12-08T11:12:36;16.58;;;9.82;;
39502;SDS011;26970;49.900;10.774;2022-12-08T11:15:13;14.70;;;9.82;;
39502;SDS011;26970;49.900;10.774;2022-12-08T11:17:58;14.45;;;9.38;;
39502;SDS011;26970;49.900;10.774;2022-12-08T11:20:36;16.35;;;9.75;;
39502;SDS011;26970;49.900;10.774;2022-12-08T11:23:17;16.40;;;9.18;;
39502;SDS011;26970;49.900;10.774;2022-12-08T11:25:48;18.23;;;9.73;;
39502;SDS011;26970;49.900;10.774;2022-12-08T11:28:21;16.45;;;10.07;;
39502;SDS011;26970;49.900;10.774;2022-12-08T11:31:01;14.73;;;8.75;;
39502;SDS011;26970;49.900;10.774;2022-12-08T11:33:48;18.20;;;9.90;;
39502;SDS011;26970;49.900;10.774;2022-12-08T11:36:24;18.75;;;9.75;;
39502;SDS011;26970;49.900;10.774;2022-12-08T11:38:55;18.17;;;10.48;;
39502;SDS011;26970;49.900;10.774;2022-12-08T11:41:36;16.42;;;10.48;;
39502;SDS011;26970;49.900;10.774;2022-12-08T11:44:20;17.00;;;9.57;;
39502;SDS011;26970;49.900;10.774;2022-12-08T11:49:36;16.15;;;9.48;;
39502;SDS011;26970;49.900;10.774;2022-12-08T11:52:26;15.52;;;10.07;;
39502;SDS011;26970;49.900;10.774;2022-12-08T11:55:00;15.95;;;9.57;;
39502;SDS011;26970;49.900;10.774;2022-12-08T11:57:38;15.45;;;9.57;;
39502;SDS011;26970;49.900;10.774;2022-12-08T12:00:16;14.55;;;9.77;;
39502;SDS011;26970;49.900;10.774;2022-12-08T12:02:48;14.00;;;9.00;;
39502;SDS011;26970;49.900;10.774;2022-12-08T12:05:58;16.10;;;9.55;;
39502;SDS011;26970;49.900;10.774;2022-12-08T12:17:04;16.05;;;9.60;;
39502;SDS011;26970;49.900;10.774;2022-12-08T12:19:37;15.98;;;9.48;;
39502;SDS011;26970;49.900;10.774;2022-12-08T12:22:12;15.73;;;9.98;;
39502;SDS011;26970;49.900;10.774;2022-12-08T12:24:42;20.58;;;9.82;;
39502;SDS011;26970;49.900;10.774;2022-12-08T12:29:43;16.88;;;9.48;;
39502;SDS011;26970;49.900;10.774;2022-12-08T12:32:12;18.02;;;9.57;;
39502;SDS011;26970;49.900;10.774;2022-12-08T12:34:49;14.90;;;9.85;;
39502;SDS011;26970;49.900;10.774;2022-12-08T12:37:23;15.80;;;9.18;;
39502;SDS011;26970;49.900;10.774;2022-12-08T12:40:02;15.48;;;9.88;;
39502;SDS011;26970;49.900;10.774;2022-12-08T12:55:49;18.20;;;10.90;;
39502;SDS011;26970;49.900;10.774;2022-12-08T13:01:35;20.20;;;10.30;;
39502;SDS011;26970;49.900;10.774;2022-12-08T13:03:47;19.60;;;11.27;;
39502;SDS011;26970;49.900;10.774;2022-12-08T13:06:32;28.98;;;14.57;;
39502;SDS011;26970;49.900;10.774;2022-12-08T13:09:20;32.63;;;16.55;;
39502;SDS011;26970;49.900;10.774;2022-12-08T13:11:55;31.55;;;14.95;;
39502;SDS011;26970;49.900;10.774;2022-12-08T13:14:36;17.95;;;10.05;;
39502;SDS011;26970;49.900;10.774;2022-12-08T13:17:11;17.20;;;10.10;;
39502;SDS011;26970;49.900;10.774;2022-12-08T13:19:42;16.40;;;10.07;;
39502;SDS011;26970;49.900;10.774;2022-12-08T13:28:11;17.10;;;9.15;;
39502;SDS011;26970;49.900;10.774;2022-12-08T13:30:45;16.30;;;10.13;;
39502;SDS011;26970;49.900;10.774;2022-12-08T13:33:29;20.85;;;11.18;;
39502;SDS011;26970;49.900;10.774;2022-12-08T13:38:43;19.65;;;10.68;;
39502;SDS011;26970;49.900;10.774;2022-12-08T13:41:17;15.77;;;9.18;;
39502;SDS011;26970;49.900;10.774;2022-12-08T13:44:05;16.98;;;9.85;;
39502;SDS011;26970;49.900;10.774;2022-12-08T13:46:39;16.45;;;9.88;;
39502;SDS011;26970;49.900;10.774;2022-12-08T13:49:08;14.93;;;8.98;;
39502;SDS011;26970;49.900;10.774;2022-12-08T13:51:43;19.10;;;9.25;;
39502;SDS011;26970;49.900;10.774;2022-12-08T13:54:17;19.40;;;9.10;;
39502;SDS011;26970;49.900;10.774;2022-12-08T13:56:50;15.90;;;9.60;;
39502;SDS011;26970;49.900;10.774;2022-12-08T13:59:24;16.38;;;10.10;;
39502;SDS011;26970;49.900;10.774;2022-12-08T14:01:56;13.57;;;8.60;;
39502;SDS011;26970;49.900;10.774;2022-12-08T14:04:44;16.20;;;9.10;;
39502;SDS011;26970;49.900;10.774;2022-12-08T14:07:13;16.20;;;10.25;;
39502;SDS011;26970;49.900;10.774;2022-12-08T14:09:39;16.50;;;9.80;;
39502;SDS011;26970;49.900;10.774;2022-12-08T14:12:07;18.00;;;10.02;;
39502;SDS011;26970;49.900;10.774;2022-12-08T14:14:52;16.40;;;9.77;;
39502;SDS011;26970;49.900;10.774;2022-12-08T14:17:22;16.83;;;10.07;;
39502;SDS011;26970;49.900;10.774;2022-12-08T14:19:52;17.70;;;10.35;;
39502;SDS011;26970;49.900;10.774;2022-12-08T14:22:20;17.25;;;10.15;;
39502;SDS011;26970;49.900;10.774;2022-12-08T14:24:48;15.20;;;9.45;;
39502;SDS011;26970;49.900;10.774;2022-12-08T14:27:17;17.45;;;9.45;;
39502;SDS011;26970;49.900;10.774;2022-12-08T14:29:50;16.40;;;9.98;;
39502;SDS011;26970;49.900;10.774;2022-12-08T14:37:35;17.58;;;10.38;;
39502;SDS011;26970;49.900;10.774;2022-12-08T14:50:53;17.30;;;9.23;;
39502;SDS011;26970;49.900;10.774;2022-12-08T14:53:22;14.95;;;8.63;;
39502;SDS011;26970;49.900;10.774;2022-12-08T14:55:48;18.55;;;9.23;;
39502;SDS011;26970;49.900;10.774;2022-12-08T14:58:21;13.25;;;8.73;;
39502;SDS011;26970;49.900;10.774;2022-12-08T15:00:53;16.83;;;8.57;;
39502;SDS011;26970;49.900;10.774;2022-12-08T15:03:22;14.98;;;9.07;;
39502;SDS011;26970;49.900;10.774;2022-12-08T15:05:55;14.40;;;9.55;;
39502;SDS011;26970;49.900;10.774;2022-12-08T15:08:22;18.75;;;10.07;;
39502;SDS011;26970;49.900;10.774;2022-12-08T15:13:41;15.30;;;9.27;;
39502;SDS011;26970;49.900;10.774;2022-12-08T15:16:26;25.95;;;16.35;;
39502;SDS011;26970;49.900;10.774;2022-12-08T15:24:10;19.48;;;12.07;;
39502;SDS011;26970;49.900;10.774;2022-12-08T15:26:42;16.55;;;9.85;;
39502;SDS011;26970;49.900;10.774;2022-12-08T15:31:50;18.67;;;10.02;;
39502;SDS011;26970;49.900;10.774;2022-12-08T15:34:18;14.15;;;9.88;;
39502;SDS011;26970;49.900;10.774;2022-12-08T15:36:45;19.33;;;10.15;;
39502;SDS011;26970;49.900;10.774;2022-12-08T15:39:18;16.63;;;9.77;;
39502;SDS011;26970;49.900;10.774;2022-12-08T15:41:49;15.93;;;9.52;;
39502;SDS011;26970;49.900;10.774;2022-12-08T15:44:14;15.50;;;8.88;;
39502;SDS011;26970;49.900;10.774;2022-12-08T15:46:40;15.50;;;9.85;;
39502;SDS011;26970;49.900;10.774;2022-12-08T15:49:08;19.08;;;11.27;;
39502;SDS011;26970;49.900;10.774;2022-12-08T15:51:40;19.02;;;11.10;;
39502;SDS011;26970;49.900;10.774;2022-12-08T15:54:06;17.88;;;10.20;;
39502;SDS011;26970;49.900;10.774;2022-12-08T15:56:31;18.27;;;10.10;;
39502;SDS011;26970;49.900;10.774;2022-12-08T15:58:58;15.73;;;8.98;;
39502;SDS011;26970;49.900;10.774;2022-12-08T16:01:23;14.32;;;8.75;;
39502;SDS011;26970;49.900;10.774;2022-12-08T16:03:49;15.60;;;9.60;;
39502;SDS011;26970;49.900;10.774;2022-12-08T16:06:16;15.02;;;9.55;;
39502;SDS011;26970;49.900;10.774;2022-12-08T16:08:44;16.33;;;8.45;;
39502;SDS011;26970;49.900;10.774;2022-12-08T16:11:10;16.52;;;8.32;;
39502;SDS011;26970;49.900;10.774;2022-12-08T16:13:54;18.17;;;9.50;;
39502;SDS011;26970;49.900;10.774;2022-12-08T16:16:22;17.55;;;9.80;;
39502;SDS011;26970;49.900;10.774;2022-12-08T16:18:52;14.20;;;8.68;;
39502;SDS011;26970;49.900;10.774;2022-12-08T16:21:18;14.23;;;8.48;;
39502;SDS011;26970;49.900;10.774;2022-12-08T16:23:44;15.43;;;9.32;;
39502;SDS011;26970;49.900;10.774;2022-12-08T16:26:14;17.15;;;8.93;;
39502;SDS011;26970;49.900;10.774;2022-12-08T16:28:41;17.00;;;8.70;;
39502;SDS011;26970;49.900;10.774;2022-12-08T16:31:08;13.23;;;7.93;;